Wakefield, MI (49968)

4:50 PM CDT on July 27, 2016 (GMT -0500)
Sunday Lake | | Change Station

Elev 1600 ft 46.48 °N, 89.95 °W | Updated 5 seconds ago

Overcast
Overcast
66.0 °F
Feels Like 66.0 °F
N
1.7
Wind Variable Wind from West
Gusts 1.7 mph

Today
High -- | Low -- °F
--% Chance of Precip.
Yesterday
High -- | Low -- °F
Precip. -- in
Pressure 30.00 in
Visibility 10.0 miles
Clouds Few 400 ft
Overcast 3100 ft
Dew Point 65 °F
Humidity 97%
Rainfall 0.00 in
Snow Depth Not available.
5:35 AM 8:36 PM
Last Quarter, 39% visible
METAR KIWD 272135Z AUTO 06007KT 10SM FEW004 OVC031 19/18 A3000 RMK AO1
Pressure 30.00 in
Visibility 10.0 miles
Clouds Few 400 ft
Overcast 3100 ft
Dew Point 65 °F
Humidity 97%
Rainfall 0.00 in
Snow Depth Not available.
5:35 AM 8:36 PM
Last Quarter, 39% visible
METAR KIWD 272135Z AUTO 06007KT 10SM FEW004 OVC031 19/18 A3000 RMK AO1

10-Day Weather Forecast

Almanac

Astronomy

Jul. 27, 2016 Rise Set
Actual Time
Civil Twilight
Nautical Twilight
Astronomical Twilight
Moon
Length of Visible Light
Length of Day
Tomorrow will be .
, % of the Moon is Illuminated

Today's Extremes

State Highs State Lows

Community

WunderPhotos

Upload Photos

1,927,944 photos uploaded!

WunderBlog® & News

Nearby

Air Quality

  Air Quality AQ Index Pollutant
Not available.

Snow Depth

Station Depth Elevation

Earthquake Activity

City Distance Mag. Time & Date
Minimum magnitude displayed is 2.5.

Coastal Water Temperatures

Place Temperature

Stations

Nearby Weather Stations

Station Location Temp. Windchill Dew Point Humidity Wind Precip. Elev Updated Type
                   

Watches & Warnings

There are currently no watches in effect.